Time;durP1;ratioP1;P1;durP2;ratioP2;P2;SDS_P1;SDS_P2;PMS_P1;PMS_P2;Temp;Humidity;BMP_temperature;BMP_pressure;BME280_temperature;BME280_humidity;BME280_pressure;Samples;Min_cycle;Max_cycle;Signal;HPM_P1;HPM_P2
2022/12/07 00:00:45;;;;;;;;;;;3.30;99.90;;;;;;5097238;28;19923;-70
2022/12/07 00:03:13;;;;;;;;;;;3.30;99.90;;;;;;5098795;28;19932;-70
2022/12/07 00:05:40;;;;;;;;;;;3.30;99.90;;;;;;5091526;28;20068;-70
2022/12/07 00:08:07;;;;;;;;;;;3.30;99.90;;;;;;5091105;28;19931;-70
2022/12/07 00:10:34;;;;;;;;;;;3.30;99.90;;;;;;5095524;28;19923;-69
2022/12/07 00:13:01;;;;;;;;;;;3.30;99.90;;;;;;5098567;28;19980;-70
2022/12/07 00:15:28;;;;;;;;;;;3.30;99.90;;;;;;5094947;28;20583;-70
2022/12/07 00:17:57;;;;;;;;;;;3.30;99.90;;;;;;5101659;28;19969;-69
2022/12/07 00:20:25;;;;;;;;;;;3.30;99.90;;;;;;5097674;28;19927;-70
2022/12/07 00:22:52;;;;;;;;;;;3.30;99.90;;;;;;5094484;28;20381;-70
2022/12/07 00:25:18;;;;;;;;;;;3.30;99.90;;;;;;5097759;28;19954;-70
2022/12/07 00:27:46;;;;;;;;;;;3.30;99.90;;;;;;5095327;28;19963;-70
2022/12/07 00:30:12;;;;;;;;;;;3.30;99.90;;;;;;5107531;27;19927;-70
2022/12/07 00:32:39;;;;;;;;;;;3.30;99.90;;;;;;5113273;27;20013;-70
2022/12/07 00:35:06;;;;;;;;;;;3.30;99.90;;;;;;5096660;28;19928;-70
2022/12/07 00:37:35;;;;;;;;;;;3.30;99.90;;;;;;5098038;28;19932;-69
2022/12/07 00:40:01;;;;;;;;;;;3.30;99.90;;;;;;5085612;28;19924;-70
2022/12/07 00:42:28;;;;;;;;;;;3.30;99.90;;;;;;5093040;28;19970;-70
2022/12/07 00:44:55;;;;;;;;;;;3.30;99.90;;;;;;5098712;28;19927;-70
2022/12/07 00:47:22;;;;;;;;;;;3.30;99.90;;;;;;5091226;28;20025;-70
2022/12/07 00:49:49;;;;;;;;;;;3.30;99.90;;;;;;5094908;28;19931;-70
2022/12/07 00:52:16;;;;;;;;;;;3.30;99.90;;;;;;5095219;28;20011;-69
2022/12/07 00:54:44;;;;;;;;;;;3.30;99.90;;;;;;5098988;28;20018;-70
2022/12/07 00:57:11;;;;;;;;;;;3.30;99.90;;;;;;5090836;28;20011;-70
2022/12/07 00:59:38;;;;;;;;;;;3.40;99.90;;;;;;5094533;28;19931;-69
2022/12/07 01:02:04;;;;;;;;;;;3.30;99.90;;;;;;5096966;28;20031;-70
2022/12/07 01:04:33;;;;;;;;;;;3.30;99.90;;;;;;5098408;28;20039;-70
2022/12/07 01:07:00;;;;;;;;;;;3.30;99.90;;;;;;5094151;28;20023;-70
2022/12/07 01:09:27;;;;;;;;;;;3.30;99.90;;;;;;5092392;28;20223;-69
2022/12/07 01:11:55;;;;;;;;;;;3.20;99.90;;;;;;5093897;28;19924;-70
2022/12/07 01:14:22;;;;;;;;;;;3.20;99.90;;;;;;5097903;28;19939;-70
2022/12/07 01:16:49;;;;;;;;;;;3.20;99.90;;;;;;5092843;28;20510;-70
2022/12/07 01:19:16;;;;;;;;;;;3.30;99.90;;;;;;5098344;28;20068;-70
2022/12/07 01:21:42;;;;;;;;;;;3.20;99.90;;;;;;5089540;28;20015;-70
2022/12/07 01:24:11;;;;;;;;;;;3.30;99.90;;;;;;5095753;28;19975;-69
2022/12/07 01:26:38;;;;;;;;;;;3.20;99.90;;;;;;5092472;28;19930;-70
2022/12/07 01:29:06;;;;;;;;;;;3.20;99.90;;;;;;5093766;28;20355;-70
2022/12/07 01:31:33;;;;;;;;;;;3.30;99.90;;;;;;5094095;28;19977;-69
2022/12/07 01:34:00;;;;;;;;;;;3.20;99.90;;;;;;5090878;28;19967;-69
2022/12/07 01:36:27;;;;;;;;;;;3.20;99.90;;;;;;5095679;28;19931;-70
2022/12/07 01:38:56;;;;;;;;;;;3.30;99.90;;;;;;5096342;28;20025;-70
2022/12/07 01:41:24;;;;;;;;;;;3.20;99.90;;;;;;5094731;28;19932;-70
2022/12/07 01:44:15;;;;;;;;;;;3.20;99.90;;;;;;5087007;28;19928;-70
2022/12/07 01:46:43;;;;;;;;;;;3.20;99.90;;;;;;5068173;28;20019;-70
2022/12/07 01:49:12;;;;;;;;;;;3.20;99.90;;;;;;5094889;28;19977;-69
2022/12/07 01:51:43;;;;;;;;;;;3.30;99.90;;;;;;5088191;28;20347;-70
2022/12/07 01:54:12;;;;;;;;;;;3.20;99.90;;;;;;5090615;28;20467;-70
2022/12/07 01:56:41;;;;;;;;;;;3.20;99.90;;;;;;5091361;28;19924;-70
2022/12/07 01:59:08;;;;;;;;;;;3.20;99.90;;;;;;5093839;28;20462;-70
2022/12/07 02:01:35;;;;;;;;;;;3.30;99.90;;;;;;5093673;28;19930;-70
2022/12/07 02:04:06;;;;;;;;;;;3.30;99.90;;;;;;5095958;28;20010;-70
2022/12/07 02:06:34;;;;;;;;;;;3.30;99.90;;;;;;5095771;28;20083;-70
2022/12/07 02:09:00;;;;;;;;;;;3.30;99.90;;;;;;5091107;28;20016;-70
2022/12/07 02:11:27;;;;;;;;;;;3.30;99.90;;;;;;5108405;27;20035;-70
2022/12/07 02:13:54;;;;;;;;;;;3.20;99.90;;;;;;5094340;28;19924;-70
2022/12/07 02:16:26;;;;;;;;;;;3.30;99.90;;;;;;5094989;28;19931;-70
2022/12/07 02:19:01;;;;;;;;;;;3.30;99.90;;;;;;5094088;28;19928;-70
2022/12/07 02:21:33;;;;;;;;;;;3.30;99.90;;;;;;5093268;28;19936;-70
2022/12/07 02:24:11;;;;;;;;;;;3.30;99.90;;;;;;5095163;28;19932;-70
2022/12/07 02:26:59;;;;;;;;;;;3.30;99.90;;;;;;5090351;28;20015;-70
2022/12/07 02:29:28;;;;;;;;;;;3.20;99.90;;;;;;5099713;28;19989;-70
2022/12/07 02:31:58;;;;;;;;;;;3.20;99.90;;;;;;5094500;28;19977;-70
2022/12/07 02:34:30;;;;;;;;;;;3.30;99.90;;;;;;5093768;28;20137;-71
2022/12/07 02:37:00;;;;;;;;;;;3.30;99.90;;;;;;5088529;28;20042;-70
2022/12/07 02:39:31;;;;;;;;;;;3.20;99.90;;;;;;5095342;28;21242;-70
2022/12/07 02:41:59;;;;;;;;;;;3.20;99.90;;;;;;5090913;28;20381;-70
2022/12/07 02:44:29;;;;;;;;;;;3.20;99.90;;;;;;5093142;28;19997;-70
2022/12/07 02:46:56;;;;;;;;;;;3.30;99.90;;;;;;5092871;28;19924;-70
2022/12/07 02:49:24;;;;;;;;;;;3.30;99.90;;;;;;5088626;28;21337;-70
2022/12/07 02:51:53;;;;;;;;;;;3.30;99.90;;;;;;5094138;28;19932;-70
2022/12/07 02:54:20;;;;;;;;;;;3.30;99.90;;;;;;5090470;28;19963;-71
2022/12/07 02:56:49;;;;;;;;;;;3.30;99.90;;;;;;5092334;28;19959;-70
2022/12/07 02:59:21;;;;;;;;;;;3.30;99.90;;;;;;5088381;28;19924;-70
2022/12/07 03:01:56;;;;;;;;;;;3.30;99.90;;;;;;5090772;28;19951;-70
2022/12/07 03:04:34;;;;;;;;;;;3.30;99.90;;;;;;5090026;28;19927;-70
2022/12/07 03:07:05;;;;;;;;;;;3.30;99.90;;;;;;5092442;28;20023;-70
2022/12/07 03:09:36;;;;;;;;;;;3.30;99.90;;;;;;5101491;28;20336;-70
2022/12/07 03:12:08;;;;;;;;;;;3.30;99.90;;;;;;5095730;28;19931;-69
2022/12/07 03:14:37;;;;;;;;;;;3.30;99.90;;;;;;5095560;28;20373;-70
2022/12/07 03:17:07;;;;;;;;;;;3.30;99.90;;;;;;5097556;28;20406;-70
2022/12/07 03:19:34;;;;;;;;;;;3.30;99.90;;;;;;5095063;28;19930;-69
2022/12/07 03:22:02;;;;;;;;;;;3.30;99.90;;;;;;5090962;28;20434;-70
2022/12/07 03:24:34;;;;;;;;;;;3.30;99.90;;;;;;5097203;28;19924;-70
2022/12/07 03:27:03;;;;;;;;;;;3.30;99.90;;;;;;5098816;28;19935;-70
2022/12/07 03:29:35;;;;;;;;;;;3.30;99.90;;;;;;5098478;28;19946;-70
2022/12/07 03:32:04;;;;;;;;;;;3.40;99.90;;;;;;5094075;28;19932;-70
2022/12/07 03:34:33;;;;;;;;;;;3.40;99.90;;;;;;5093143;28;19924;-69
2022/12/07 03:37:03;;;;;;;;;;;3.30;99.90;;;;;;5099263;28;19932;-71
2022/12/07 03:39:32;;;;;;;;;;;3.40;99.90;;;;;;5090583;28;20413;-70
2022/12/07 03:42:01;;;;;;;;;;;3.40;99.90;;;;;;5095355;28;20476;-70
2022/12/07 03:44:28;;;;;;;;;;;3.40;99.90;;;;;;5095969;28;20004;-70
2022/12/07 03:47:00;;;;;;;;;;;3.40;99.90;;;;;;5112506;27;19932;-70
2022/12/07 03:49:29;;;;;;;;;;;3.40;99.90;;;;;;5088451;28;19924;-69
2022/12/07 03:52:01;;;;;;;;;;;3.30;99.90;;;;;;5097302;28;19932;-70
2022/12/07 03:54:31;;;;;;;;;;;3.30;99.90;;;;;;5097529;28;20339;-70
2022/12/07 03:56:59;;;;;;;;;;;3.30;99.90;;;;;;5094793;28;20253;-70
2022/12/07 03:59:26;;;;;;;;;;;3.30;99.90;;;;;;5089409;28;19966;-70
2022/12/07 04:01:54;;;;;;;;;;;3.20;99.90;;;;;;5092828;28;19964;-70
2022/12/07 04:04:22;;;;;;;;;;;3.30;99.90;;;;;;5095324;28;20502;-70
2022/12/07 04:06:49;;;;;;;;;;;3.30;99.90;;;;;;5085816;28;20547;-70
2022/12/07 04:09:18;;;;;;;;;;;3.30;99.90;;;;;;5098411;28;20583;-70
2022/12/07 04:11:45;;;;;;;;;;;3.30;99.90;;;;;;5093472;28;19936;-70
2022/12/07 04:14:21;;;;;;;;;;;3.30;99.90;;;;;;5095225;28;20228;-71
2022/12/07 04:16:47;;;;;;;;;;;3.30;99.90;;;;;;5091751;28;19944;-71
2022/12/07 04:19:15;;;;;;;;;;;3.30;99.90;;;;;;5094923;28;19928;-70
2022/12/07 04:21:41;;;;;;;;;;;3.30;99.90;;;;;;5094044;28;20336;-70
2022/12/07 04:24:09;;;;;;;;;;;3.20;99.90;;;;;;5094106;28;19964;-70
2022/12/07 04:26:37;;;;;;;;;;;3.30;99.90;;;;;;5091981;28;19970;-70
2022/12/07 04:29:04;;;;;;;;;;;3.30;99.90;;;;;;5093137;28;19985;-70
2022/12/07 04:31:30;;;;;;;;;;;3.30;99.90;;;;;;5090766;28;19985;-70
2022/12/07 04:33:57;;;;;;;;;;;3.30;99.90;;;;;;5092265;28;19932;-70
2022/12/07 04:36:24;;;;;;;;;;;3.30;99.90;;;;;;5095367;28;19968;-69
2022/12/07 04:38:53;;;;;;;;;;;3.30;99.90;;;;;;5086299;28;19930;-70
2022/12/07 04:41:26;;;;;;;;;;;3.30;99.90;;;;;;5093166;28;20027;-69
2022/12/07 04:43:55;;;;;;;;;;;3.30;99.90;;;;;;5085781;28;20239;-70
2022/12/07 04:46:22;;;;;;;;;;;3.20;99.90;;;;;;5088340;28;19928;-70
2022/12/07 04:48:49;;;;;;;;;;;3.30;99.90;;;;;;5090095;28;19971;-70
2022/12/07 04:51:19;;;;;;;;;;;3.30;99.90;;;;;;5096020;28;19927;-70
2022/12/07 04:53:46;;;;;;;;;;;3.30;99.90;;;;;;5085690;28;19939;-69
2022/12/07 04:56:13;;;;;;;;;;;3.30;99.90;;;;;;5095336;28;19978;-69
2022/12/07 04:58:39;;;;;;;;;;;3.20;99.90;;;;;;5093132;28;20004;-69
2022/12/07 05:01:08;;;;;;;;;;;3.40;99.90;;;;;;5089798;28;20012;-69
2022/12/07 05:03:34;;;;;;;;;;;3.20;99.90;;;;;;5095192;28;20455;-70
2022/12/07 05:06:01;;;;;;;;;;;3.30;99.90;;;;;;5093865;28;20403;-69
2022/12/07 05:08:28;;;;;;;;;;;3.30;99.90;;;;;;5093534;28;20443;-70
2022/12/07 05:10:55;;;;;;;;;;;3.20;99.90;;;;;;5093818;28;20309;-69
2022/12/07 05:13:22;;;;;;;;;;;3.20;99.90;;;;;;5092523;28;19939;-69
2022/12/07 05:15:49;;;;;;;;;;;3.20;99.90;;;;;;5095364;28;19924;-69
2022/12/07 05:18:17;;;;;;;;;;;3.20;99.90;;;;;;5085641;28;19923;-70
2022/12/07 05:20:45;;;;;;;;;;;3.20;99.90;;;;;;5095060;28;19932;-70
2022/12/07 05:23:12;;;;;;;;;;;3.20;99.90;;;;;;5095905;28;19930;-70
2022/12/07 05:25:40;;;;;;;;;;;3.20;99.90;;;;;;5090456;28;19923;-69
2022/12/07 05:28:07;;;;;;;;;;;3.20;99.90;;;;;;5088444;28;19942;-69
2022/12/07 05:30:33;;;;;;;;;;;3.20;99.90;;;;;;5090407;28;19932;-70
2022/12/07 05:33:00;;;;;;;;;;;3.20;99.90;;;;;;5097437;28;20042;-73
2022/12/07 05:35:28;;;;;;;;;;;3.20;99.90;;;;;;5094257;28;20286;-75
2022/12/07 05:37:55;;;;;;;;;;;3.20;99.90;;;;;;5089077;28;19975;-69
2022/12/07 05:40:22;;;;;;;;;;;3.10;99.90;;;;;;5094889;28;19928;-78
2022/12/07 05:42:49;;;;;;;;;;;3.10;99.90;;;;;;5094497;28;19942;-77
2022/12/07 05:45:16;;;;;;;;;;;3.10;99.90;;;;;;5090894;28;19924;-70
2022/12/07 05:47:42;;;;;;;;;;;3.10;99.90;;;;;;5093959;28;19939;-70
2022/12/07 05:50:09;;;;;;;;;;;3.10;99.90;;;;;;5093156;28;19942;-69
2022/12/07 05:52:38;;;;;;;;;;;3.10;99.90;;;;;;5090593;28;20395;-70
2022/12/07 05:55:06;;;;;;;;;;;3.10;99.90;;;;;;5090761;28;19989;-70
2022/12/07 05:57:33;;;;;;;;;;;3.10;99.90;;;;;;5089810;28;19924;-70
2022/12/07 05:59:59;;;;;;;;;;;3.10;99.90;;;;;;5091829;28;20006;-70
2022/12/07 06:02:26;;;;;;;;;;;3.10;99.90;;;;;;5086248;28;20010;-71
2022/12/07 06:04:53;;;;;;;;;;;3.10;99.90;;;;;;5091644;28;20333;-70
2022/12/07 06:07:20;;;;;;;;;;;3.10;99.90;;;;;;5091883;28;20014;-76
2022/12/07 06:09:48;;;;;;;;;;;3.10;99.90;;;;;;5092376;28;19923;-70
2022/12/07 06:14:59;;;;;;;;;;;3.10;99.90;;;;;;5088755;28;19927;-71
2022/12/07 06:17:26;;;;;;;;;;;3.00;99.90;;;;;;5096047;28;19924;-70
2022/12/07 06:19:53;;;;;;;;;;;3.10;99.90;;;;;;5089942;28;19963;-70
2022/12/07 06:22:20;;;;;;;;;;;3.00;99.90;;;;;;5091081;28;19932;-70
2022/12/07 06:24:48;;;;;;;;;;;3.10;99.90;;;;;;5092869;28;20346;-70
2022/12/07 06:27:15;;;;;;;;;;;3.10;99.90;;;;;;5088505;28;20064;-70
2022/12/07 06:29:42;;;;;;;;;;;3.00;99.90;;;;;;5091300;28;20562;-70
2022/12/07 06:32:09;;;;;;;;;;;3.10;99.90;;;;;;5093002;28;19938;-70
2022/12/07 06:34:36;;;;;;;;;;;3.00;99.90;;;;;;5094898;28;19928;-70
2022/12/07 06:37:03;;;;;;;;;;;3.10;99.90;;;;;;5090934;28;20074;-70
2022/12/07 06:39:30;;;;;;;;;;;3.00;99.90;;;;;;5091315;28;19970;-70
2022/12/07 06:41:58;;;;;;;;;;;3.00;99.90;;;;;;5089720;28;19947;-70
2022/12/07 06:44:26;;;;;;;;;;;3.00;99.90;;;;;;5087259;28;19931;-70
2022/12/07 06:46:53;;;;;;;;;;;3.00;99.90;;;;;;5087146;28;19973;-72
2022/12/07 06:49:19;;;;;;;;;;;3.00;99.90;;;;;;5093131;28;19963;-70
2022/12/07 06:51:46;;;;;;;;;;;3.00;99.90;;;;;;5086446;28;20042;-70
2022/12/07 06:54:14;;;;;;;;;;;3.00;99.90;;;;;;5085634;28;20386;-72
2022/12/07 06:56:41;;;;;;;;;;;3.00;99.90;;;;;;5085552;28;19930;-69
2022/12/07 06:59:09;;;;;;;;;;;3.00;99.90;;;;;;5089656;28;19932;-70
2022/12/07 07:01:36;;;;;;;;;;;3.00;99.90;;;;;;5084490;28;19931;-70
2022/12/07 07:04:04;;;;;;;;;;;3.00;99.90;;;;;;5087484;28;19932;-71
2022/12/07 07:06:30;;;;;;;;;;;3.00;99.90;;;;;;5089751;28;20381;-70
2022/12/07 07:08:57;;;;;;;;;;;3.00;99.90;;;;;;5085512;28;19957;-70
2022/12/07 07:11:24;;;;;;;;;;;3.00;99.90;;;;;;5088899;28;20793;-70
2022/12/07 07:13:51;;;;;;;;;;;3.00;99.90;;;;;;5089328;28;19924;-72
2022/12/07 07:16:19;;;;;;;;;;;3.00;99.90;;;;;;5087715;28;20308;-71
2022/12/07 07:18:46;;;;;;;;;;;3.00;99.90;;;;;;5088117;28;19923;-71
2022/12/07 07:21:15;;;;;;;;;;;3.00;99.90;;;;;;5079836;28;19985;-72
2022/12/07 07:23:42;;;;;;;;;;;3.00;99.90;;;;;;5090322;28;19928;-72
2022/12/07 07:26:08;;;;;;;;;;;3.00;99.90;;;;;;5092681;28;19924;-71
2022/12/07 07:28:35;;;;;;;;;;;3.00;99.90;;;;;;5094219;28;19966;-71
2022/12/07 07:31:02;;;;;;;;;;;3.00;99.90;;;;;;5091035;28;19923;-71
2022/12/07 07:33:30;;;;;;;;;;;3.00;99.90;;;;;;5094339;28;19936;-81
2022/12/07 07:35:57;;;;;;;;;;;3.00;99.90;;;;;;5091968;28;19951;-72
2022/12/07 07:38:24;;;;;;;;;;;3.00;99.90;;;;;;5090518;28;19931;-71
2022/12/07 07:40:53;;;;;;;;;;;3.00;99.90;;;;;;5094445;28;19938;-72
2022/12/07 07:43:20;;;;;;;;;;;3.00;99.90;;;;;;5101717;28;20518;-72
2022/12/07 07:45:47;;;;;;;;;;;3.00;99.90;;;;;;5091907;28;19951;-79
2022/12/07 07:48:14;;;;;;;;;;;3.00;99.90;;;;;;5088672;28;20002;-72
2022/12/07 07:50:42;;;;;;;;;;;2.90;99.90;;;;;;5103474;28;19944;-72
2022/12/07 07:53:09;;;;;;;;;;;2.90;99.90;;;;;;5100114;28;19978;-72
2022/12/07 07:55:36;;;;;;;;;;;2.90;99.90;;;;;;5096077;28;19924;-72
2022/12/07 07:58:03;;;;;;;;;;;2.90;99.90;;;;;;5101343;28;21004;-72
2022/12/07 08:00:29;;;;;;;;;;;2.90;99.90;;;;;;5099227;28;19928;-72
2022/12/07 08:02:56;;;;;;;;;;;2.90;99.90;;;;;;5104779;28;19931;-71
2022/12/07 08:05:23;;;;;;;;;;;2.90;99.90;;;;;;5099375;28;19977;-72
2022/12/07 08:07:51;;;;;;;;;;;2.90;99.90;;;;;;5103544;28;19932;-72
2022/12/07 08:10:18;;;;;;;;;;;2.90;99.90;;;;;;5097033;28;20485;-72
2022/12/07 08:15:30;;;;;;;;;;;2.90;99.90;;;;;;5098864;28;20328;-72
2022/12/07 08:17:58;;;;;;;;;;;2.90;99.90;;;;;;5098845;28;19971;-72
2022/12/07 08:20:25;;;;;;;;;;;2.90;99.90;;;;;;5098082;28;20143;-72
2022/12/07 08:22:53;;;;;;;;;;;2.90;99.90;;;;;;5097998;28;20279;-72
2022/12/07 08:25:20;;;;;;;;;;;2.90;99.90;;;;;;5102522;28;19924;-72
2022/12/07 08:27:47;;;;;;;;;;;2.90;99.90;;;;;;5102242;28;19927;-72
2022/12/07 08:30:14;;;;;;;;;;;2.90;99.90;;;;;;5105618;28;19923;-72
2022/12/07 08:32:41;;;;;;;;;;;2.90;99.90;;;;;;5102394;28;19924;-72
2022/12/07 08:35:08;;;;;;;;;;;2.90;99.90;;;;;;5103127;28;19938;-71
2022/12/07 08:37:35;;;;;;;;;;;2.80;99.90;;;;;;5101687;28;20164;-71
2022/12/07 08:40:04;;;;;;;;;;;2.90;99.90;;;;;;5098428;28;19931;-72
2022/12/07 08:42:37;;;;;;;;;;;2.80;99.90;;;;;;5103047;28;19932;-72
2022/12/07 08:45:05;;;;;;;;;;;2.90;99.90;;;;;;5098183;28;19930;-72
2022/12/07 08:47:31;;;;;;;;;;;2.80;99.90;;;;;;5100812;28;19924;-71
2022/12/07 08:50:03;;;;;;;;;;;2.90;99.90;;;;;;5097447;28;20508;-72
2022/12/07 08:52:30;;;;;;;;;;;2.90;99.90;;;;;;5099769;28;19931;-72
2022/12/07 08:54:58;;;;;;;;;;;2.80;99.90;;;;;;5098534;28;20186;-72
2022/12/07 08:57:27;;;;;;;;;;;2.90;99.90;;;;;;5095455;28;19923;-72
2022/12/07 08:59:54;;;;;;;;;;;2.90;99.90;;;;;;5104348;28;19959;-72
2022/12/07 09:02:21;;;;;;;;;;;2.80;99.90;;;;;;5103960;28;19950;-72
2022/12/07 09:04:50;;;;;;;;;;;2.90;99.90;;;;;;5105625;28;19924;-71
2022/12/07 09:07:17;;;;;;;;;;;2.90;99.90;;;;;;5100367;28;19950;-72
2022/12/07 09:09:43;;;;;;;;;;;2.90;99.90;;;;;;5103751;28;20031;-71
2022/12/07 09:12:10;;;;;;;;;;;2.90;99.90;;;;;;5095741;28;19959;-72
2022/12/07 09:14:39;;;;;;;;;;;2.90;99.90;;;;;;5100450;28;20394;-72
2022/12/07 09:17:06;;;;;;;;;;;2.90;99.90;;;;;;5095305;28;20299;-72
2022/12/07 09:19:33;;;;;;;;;;;2.90;99.90;;;;;;5100735;28;19931;-72
2022/12/07 09:22:00;;;;;;;;;;;2.90;99.90;;;;;;5101891;28;20915;-71
2022/12/07 09:24:27;;;;;;;;;;;2.90;99.90;;;;;;5096766;27;19943;-72
2022/12/07 09:26:54;;;;;;;;;;;2.90;99.90;;;;;;5098061;28;19924;-72
2022/12/07 09:29:21;;;;;;;;;;;2.90;99.90;;;;;;5099517;28;19931;-72
2022/12/07 09:31:49;;;;;;;;;;;2.90;99.90;;;;;;5098333;28;20014;-72
2022/12/07 09:34:16;;;;;;;;;;;2.80;99.90;;;;;;5094633;28;19924;-71
2022/12/07 09:36:43;;;;;;;;;;;2.90;99.90;;;;;;5104272;28;19973;-72
2022/12/07 09:39:10;;;;;;;;;;;2.80;99.90;;;;;;5101808;28;19924;-72
2022/12/07 09:41:38;;;;;;;;;;;2.90;99.90;;;;;;5105645;28;20359;-72
2022/12/07 09:44:10;;;;;;;;;;;2.90;99.90;;;;;;5095304;28;19936;-72
2022/12/07 09:46:38;;;;;;;;;;;2.90;99.90;;;;;;5094563;28;20023;-73
2022/12/07 09:49:09;;;;;;;;;;;2.90;99.90;;;;;;5102049;28;19963;-72
2022/12/07 09:51:36;;;;;;;;;;;2.90;99.90;;;;;;5095876;28;19935;-72
2022/12/07 09:54:03;;;;;;;;;;;2.90;99.90;;;;;;5097601;28;19971;-71
2022/12/07 09:56:31;;;;;;;;;;;2.90;99.90;;;;;;5098079;28;20333;-71
2022/12/07 09:59:00;;;;;;;;;;;2.90;99.90;;;;;;5093926;28;20355;-71
2022/12/07 10:01:29;;;;;;;;;;;2.90;99.90;;;;;;5094359;28;20010;-71
2022/12/07 10:04:01;;;;;;;;;;;2.90;99.90;;;;;;5096090;28;20578;-71
2022/12/07 10:06:30;;;;;;;;;;;2.90;99.90;;;;;;5097690;28;19993;-71
2022/12/07 10:08:56;;;;;;;;;;;2.90;99.90;;;;;;5096458;28;20638;-72
2022/12/07 10:11:23;;;;;;;;;;;2.90;99.90;;;;;;5097692;28;19924;-71
2022/12/07 10:13:53;;;;;;;;;;;2.90;99.90;;;;;;5097359;28;20442;-71
2022/12/07 10:16:32;;;;;;;;;;;2.90;99.90;;;;;;5098309;28;20116;-72
2022/12/07 10:19:18;;;;;;;;;;;2.90;99.90;;;;;;5096007;28;20575;-71
2022/12/07 10:21:59;;;;;;;;;;;2.90;99.90;;;;;;5095855;28;19931;-71
2022/12/07 10:24:26;;;;;;;;;;;2.90;99.90;;;;;;5098270;28;20437;-72
2022/12/07 10:26:53;;;;;;;;;;;2.90;99.90;;;;;;5100239;28;19923;-71
2022/12/07 10:29:27;;;;;;;;;;;2.90;99.90;;;;;;5094866;28;19924;-72
2022/12/07 10:31:56;;;;;;;;;;;2.90;99.90;;;;;;5094713;28;20270;-72
2022/12/07 10:34:25;;;;;;;;;;;2.90;99.90;;;;;;5098966;28;19932;-71
2022/12/07 10:36:53;;;;;;;;;;;2.90;99.90;;;;;;5098536;28;19924;-72
2022/12/07 10:39:21;;;;;;;;;;;2.90;99.90;;;;;;5092189;28;19932;-72
2022/12/07 10:41:55;;;;;;;;;;;2.90;99.90;;;;;;5099788;28;20356;-72
2022/12/07 10:44:22;;;;;;;;;;;2.90;99.90;;;;;;5100574;28;20112;-72
2022/12/07 10:47:08;;;;;;;;;;;2.90;99.90;;;;;;5098391;28;20313;-72
2022/12/07 10:50:02;;;;;;;;;;;3.00;99.90;;;;;;5104805;28;20008;-72
2022/12/07 10:52:38;;;;;;;;;;;3.00;99.90;;;;;;5100121;28;19931;-72
2022/12/07 10:55:12;;;;;;;;;;;3.00;99.90;;;;;;5102317;28;19948;-72
2022/12/07 10:57:48;;;;;;;;;;;3.00;99.90;;;;;;5105351;28;19949;-72
2022/12/07 11:00:18;;;;;;;;;;;3.00;99.90;;;;;;5096341;28;19971;-72
2022/12/07 11:02:54;;;;;;;;;;;3.00;99.90;;;;;;5101493;28;19967;-72
2022/12/07 11:05:25;;;;;;;;;;;3.00;99.90;;;;;;5093555;28;19967;-71
2022/12/07 11:08:00;;;;;;;;;;;3.00;99.90;;;;;;5100911;28;19923;-72
2022/12/07 11:10:30;;;;;;;;;;;3.00;99.90;;;;;;5093252;28;19928;-72
2022/12/07 11:13:05;;;;;;;;;;;3.10;99.90;;;;;;5098850;28;20176;-72
2022/12/07 11:15:40;;;;;;;;;;;3.10;99.90;;;;;;5093863;28;19928;-71
2022/12/07 11:18:08;;;;;;;;;;;3.10;99.90;;;;;;5096059;28;19962;-72
2022/12/07 11:20:41;;;;;;;;;;;3.10;99.90;;;;;;5096332;28;20065;-72
2022/12/07 11:23:14;;;;;;;;;;;3.10;99.90;;;;;;5101765;28;19932;-72
2022/12/07 11:25:47;;;;;;;;;;;3.10;99.90;;;;;;5098203;28;19931;-71
2022/12/07 11:28:19;;;;;;;;;;;3.10;99.90;;;;;;5097129;28;20478;-71
2022/12/07 11:30:50;;;;;;;;;;;3.10;99.90;;;;;;5103611;27;19924;-71
2022/12/07 11:33:20;;;;;;;;;;;3.10;99.90;;;;;;5097461;28;19928;-72
2022/12/07 11:35:55;;;;;;;;;;;3.10;99.90;;;;;;5099142;28;19949;-72
2022/12/07 11:38:27;;;;;;;;;;;3.20;99.90;;;;;;5105406;28;19931;-72
2022/12/07 11:41:12;;;;;;;;;;;3.10;99.90;;;;;;5099703;28;20451;-72
2022/12/07 11:43:43;;;;;;;;;;;3.10;99.90;;;;;;5097826;28;20003;-72
2022/12/07 11:46:12;;;;;;;;;;;3.20;99.90;;;;;;5101777;28;20685;-71
2022/12/07 11:48:42;;;;;;;;;;;3.20;99.90;;;;;;5098317;28;19924;-72
2022/12/07 11:51:11;;;;;;;;;;;3.20;99.90;;;;;;5106662;28;20113;-72
2022/12/07 11:53:43;;;;;;;;;;;3.20;99.90;;;;;;5093263;28;19930;-72
2022/12/07 11:56:12;;;;;;;;;;;3.20;99.90;;;;;;5101077;28;20020;-72
2022/12/07 11:58:48;;;;;;;;;;;3.20;99.90;;;;;;5101082;28;20006;-72
2022/12/07 12:01:28;;;;;;;;;;;3.20;99.90;;;;;;5089292;28;19930;-72
2022/12/07 12:03:58;;;;;;;;;;;3.20;99.90;;;;;;5097672;28;19931;-72
2022/12/07 12:06:25;;;;;;;;;;;3.30;99.90;;;;;;5098096;28;19935;-71
2022/12/07 12:08:56;;;;;;;;;;;3.30;99.90;;;;;;5093730;28;19931;-72
2022/12/07 12:11:31;;;;;;;;;;;3.30;99.90;;;;;;5096415;28;19924;-72
2022/12/07 12:14:08;;;;;;;;;;;3.30;99.90;;;;;;5101636;28;19923;-72
2022/12/07 12:16:45;;;;;;;;;;;3.30;99.90;;;;;;5097375;28;19956;-71
2022/12/07 12:19:18;;;;;;;;;;;3.30;99.90;;;;;;5099753;28;19973;-71
2022/12/07 12:21:47;;;;;;;;;;;3.30;99.90;;;;;;5098233;28;19924;-70
2022/12/07 12:24:17;;;;;;;;;;;3.30;99.90;;;;;;5102299;28;19923;-70
2022/12/07 12:26:50;;;;;;;;;;;3.30;99.90;;;;;;5098465;28;20386;-70
2022/12/07 12:29:23;;;;;;;;;;;3.30;99.90;;;;;;5098045;28;20007;-70
2022/12/07 12:32:05;;;;;;;;;;;3.30;99.90;;;;;;5097976;28;19928;-71
2022/12/07 12:34:34;;;;;;;;;;;3.30;99.90;;;;;;5095759;28;19924;-71
2022/12/07 12:37:01;;;;;;;;;;;3.40;99.90;;;;;;5097290;28;19923;-71
2022/12/07 12:39:29;;;;;;;;;;;3.40;99.90;;;;;;5105106;28;19932;-71
2022/12/07 12:42:07;;;;;;;;;;;3.40;99.90;;;;;;5088026;28;19993;-70
2022/12/07 12:44:58;;;;;;;;;;;3.40;99.90;;;;;;5095779;28;20297;-78
2022/12/07 12:47:52;;;;;;;;;;;3.40;99.90;;;;;;5095068;28;19932;-70
2022/12/07 12:50:21;;;;;;;;;;;3.40;99.90;;;;;;5093894;28;20043;-71
2022/12/07 12:53:06;;;;;;;;;;;3.50;99.90;;;;;;5095886;28;19927;-71
2022/12/07 12:55:51;;;;;;;;;;;3.50;99.90;;;;;;5091304;28;19931;-71
2022/12/07 12:58:43;;;;;;;;;;;3.50;99.90;;;;;;5095789;28;19942;-71
2022/12/07 13:01:28;;;;;;;;;;;3.50;99.90;;;;;;5092845;28;20297;-70
2022/12/07 13:03:57;;;;;;;;;;;3.50;99.90;;;;;;5086209;28;19932;-79
2022/12/07 13:06:35;;;;;;;;;;;3.50;99.90;;;;;;5096158;28;20351;-74
2022/12/07 13:09:02;;;;;;;;;;;3.50;99.90;;;;;;5082604;28;19942;-72
2022/12/07 13:11:30;;;;;;;;;;;3.50;99.90;;;;;;5100231;28;19931;-71
2022/12/07 13:14:12;;;;;;;;;;;3.50;99.90;;;;;;5085826;28;19932;-71
2022/12/07 13:16:42;;;;;;;;;;;3.50;99.90;;;;;;5075912;28;19932;-71
2022/12/07 13:19:28;;;;;;;;;;;3.50;99.90;;;;;;5088044;28;19934;-71
2022/12/07 13:21:56;;;;;;;;;;;3.60;99.90;;;;;;5086041;28;20639;-71
2022/12/07 13:24:23;;;;;;;;;;;3.50;99.90;;;;;;5088327;28;19934;-71
2022/12/07 13:26:56;;;;;;;;;;;3.60;99.90;;;;;;5091263;28;19939;-71
2022/12/07 13:29:24;;;;;;;;;;;3.60;99.90;;;;;;5093004;28;19931;-71
2022/12/07 13:31:52;;;;;;;;;;;3.60;99.90;;;;;;5096250;28;20034;-71
2022/12/07 13:34:29;;;;;;;;;;;3.60;99.90;;;;;;5098463;28;19975;-72
2022/12/07 13:36:57;;;;;;;;;;;3.60;99.90;;;;;;5098797;28;19981;-72
2022/12/07 13:39:25;;;;;;;;;;;3.60;99.90;;;;;;5093507;28;19930;-71
2022/12/07 13:41:53;;;;;;;;;;;3.60;99.90;;;;;;5091033;28;20248;-72
2022/12/07 13:44:20;;;;;;;;;;;3.60;99.90;;;;;;5100754;28;19932;-72
2022/12/07 13:46:50;;;;;;;;;;;3.60;99.90;;;;;;5092526;28;20119;-72
2022/12/07 13:49:18;;;;;;;;;;;3.60;99.90;;;;;;5092667;28;20382;-72
2022/12/07 13:51:46;;;;;;;;;;;3.60;99.90;;;;;;5091449;28;19923;-72
2022/12/07 13:54:14;;;;;;;;;;;3.60;99.90;;;;;;5092481;28;19927;-72
2022/12/07 13:56:41;;;;;;;;;;;3.60;99.90;;;;;;5093082;28;19932;-75
2022/12/07 13:59:14;;;;;;;;;;;3.60;99.90;;;;;;5097377;28;20164;-75
2022/12/07 14:01:40;;;;;;;;;;;3.70;99.90;;;;;;5096565;27;19924;-71
2022/12/07 14:04:30;;;;;;;;;;;3.70;99.90;;;;;;5092615;28;19938;-69
2022/12/07 14:06:57;;;;;;;;;;;3.60;99.90;;;;;;5094111;28;19981;-70
2022/12/07 14:09:26;;;;;;;;;;;3.60;99.90;;;;;;5096100;28;19923;-70
2022/12/07 14:11:54;;;;;;;;;;;3.70;99.90;;;;;;5095096;28;19947;-70
2022/12/07 14:14:22;;;;;;;;;;;3.60;99.90;;;;;;5094736;28;19924;-70
2022/12/07 14:16:57;;;;;;;;;;;3.60;99.90;;;;;;5104043;28;20382;-70
2022/12/07 14:19:49;;;;;;;;;;;3.70;99.90;;;;;;5095525;28;21318;-70
2022/12/07 14:22:20;;;;;;;;;;;3.70;99.90;;;;;;5097771;28;19938;-71
2022/12/07 14:24:48;;;;;;;;;;;3.70;99.90;;;;;;5097667;28;19993;-71
2022/12/07 14:27:19;;;;;;;;;;;3.70;99.90;;;;;;5096356;28;19924;-70
2022/12/07 14:29:46;;;;;;;;;;;3.70;99.90;;;;;;5103215;28;19927;-71
2022/12/07 14:32:22;;;;;;;;;;;3.70;99.90;;;;;;5099885;28;20027;-70
2022/12/07 14:34:56;;;;;;;;;;;3.70;99.90;;;;;;5094429;28;19967;-71
2022/12/07 14:37:23;;;;;;;;;;;3.70;99.90;;;;;;5101888;28;19927;-70
2022/12/07 14:39:51;;;;;;;;;;;3.70;99.90;;;;;;5099699;28;19938;-71
2022/12/07 14:42:18;;;;;;;;;;;3.70;99.90;;;;;;5093283;28;19928;-70
2022/12/07 14:44:45;;;;;;;;;;;3.70;99.90;;;;;;5090294;28;20022;-70
2022/12/07 14:47:11;;;;;;;;;;;3.70;99.90;;;;;;5098620;28;19924;-70
2022/12/07 14:49:38;;;;;;;;;;;3.70;99.90;;;;;;5096906;28;19931;-71